sensor_id;sensor_type;location;lat;lon;timestamp;P1;durP1;ratioP1;P2;durP2;ratioP2
6640;SDS011;3356;49.360;8.266;2022-08-07T00:00:17;1.60;;;1.10;;
6640;SDS011;3356;49.360;8.266;2022-08-07T00:02:19;1.23;;;1.00;;
6640;SDS011;3356;49.360;8.266;2022-08-07T00:04:20;2.93;;;1.43;;
6640;SDS011;3356;49.360;8.266;2022-08-07T00:06:21;2.87;;;1.20;;
6640;SDS011;3356;49.360;8.266;2022-08-07T00:08:22;1.33;;;1.10;;
6640;SDS011;3356;49.360;8.266;2022-08-07T00:10:23;2.37;;;1.00;;
6640;SDS011;3356;49.360;8.266;2022-08-07T00:12:24;2.10;;;1.47;;
6640;SDS011;3356;49.360;8.266;2022-08-07T00:14:26;1.80;;;1.10;;
6640;SDS011;3356;49.360;8.266;2022-08-07T00:16:29;1.20;;;1.10;;
6640;SDS011;3356;49.360;8.266;2022-08-07T00:18:31;1.23;;;1.10;;
6640;SDS011;3356;49.360;8.266;2022-08-07T00:20:32;1.13;;;1.07;;
6640;SDS011;3356;49.360;8.266;2022-08-07T00:22:33;3.70;;;0.77;;
6640;SDS011;3356;49.360;8.266;2022-08-07T00:24:35;2.57;;;1.17;;
6640;SDS011;3356;49.360;8.266;2022-08-07T00:26:36;1.93;;;0.83;;
6640;SDS011;3356;49.360;8.266;2022-08-07T00:28:37;3.33;;;1.00;;
6640;SDS011;3356;49.360;8.266;2022-08-07T00:30:38;2.23;;;1.10;;
6640;SDS011;3356;49.360;8.266;2022-08-07T00:32:39;1.33;;;1.03;;
6640;SDS011;3356;49.360;8.266;2022-08-07T00:34:40;2.10;;;0.90;;
6640;SDS011;3356;49.360;8.266;2022-08-07T00:36:42;1.47;;;1.00;;
6640;SDS011;3356;49.360;8.266;2022-08-07T00:38:43;1.87;;;1.00;;
6640;SDS011;3356;49.360;8.266;2022-08-07T00:40:44;2.30;;;0.80;;
6640;SDS011;3356;49.360;8.266;2022-08-07T00:42:45;1.20;;;0.87;;
6640;SDS011;3356;49.360;8.266;2022-08-07T00:44:46;1.13;;;1.10;;
6640;SDS011;3356;49.360;8.266;2022-08-07T00:46:48;4.47;;;0.93;;
6640;SDS011;3356;49.360;8.266;2022-08-07T00:48:50;3.03;;;0.87;;
6640;SDS011;3356;49.360;8.266;2022-08-07T00:50:51;1.10;;;0.70;;
6640;SDS011;3356;49.360;8.266;2022-08-07T00:52:53;4.60;;;0.80;;
6640;SDS011;3356;49.360;8.266;2022-08-07T00:54:54;2.10;;;0.93;;
6640;SDS011;3356;49.360;8.266;2022-08-07T00:56:55;0.70;;;0.70;;
6640;SDS011;3356;49.360;8.266;2022-08-07T00:58:56;0.87;;;0.70;;
6640;SDS011;3356;49.360;8.266;2022-08-07T01:00:58;2.07;;;0.73;;
6640;SDS011;3356;49.360;8.266;2022-08-07T01:02:59;0.80;;;0.80;;
6640;SDS011;3356;49.360;8.266;2022-08-07T01:05:03;1.93;;;0.87;;
6640;SDS011;3356;49.360;8.266;2022-08-07T01:07:06;3.13;;;0.83;;
6640;SDS011;3356;49.360;8.266;2022-08-07T01:09:07;4.73;;;1.10;;
6640;SDS011;3356;49.360;8.266;2022-08-07T01:11:09;1.47;;;0.60;;
6640;SDS011;3356;49.360;8.266;2022-08-07T01:13:11;0.53;;;0.53;;
6640;SDS011;3356;49.360;8.266;2022-08-07T01:15:13;2.30;;;0.97;;
6640;SDS011;3356;49.360;8.266;2022-08-07T01:17:14;0.77;;;0.50;;
6640;SDS011;3356;49.360;8.266;2022-08-07T01:19:16;0.70;;;0.70;;
6640;SDS011;3356;49.360;8.266;2022-08-07T01:21:18;1.70;;;0.73;;
6640;SDS011;3356;49.360;8.266;2022-08-07T01:23:23;0.67;;;0.50;;
6640;SDS011;3356;49.360;8.266;2022-08-07T01:25:25;0.80;;;0.50;;
6640;SDS011;3356;49.360;8.266;2022-08-07T01:27:26;0.90;;;0.60;;
6640;SDS011;3356;49.360;8.266;2022-08-07T01:29:28;1.90;;;0.50;;
6640;SDS011;3356;49.360;8.266;2022-08-07T01:31:30;2.60;;;0.70;;
6640;SDS011;3356;49.360;8.266;2022-08-07T01:33:34;0.53;;;0.43;;
6640;SDS011;3356;49.360;8.266;2022-08-07T01:35:35;2.60;;;0.40;;
6640;SDS011;3356;49.360;8.266;2022-08-07T01:37:37;0.93;;;0.53;;
6640;SDS011;3356;49.360;8.266;2022-08-07T01:39:39;1.83;;;0.77;;
6640;SDS011;3356;49.360;8.266;2022-08-07T01:41:44;2.10;;;0.60;;
6640;SDS011;3356;49.360;8.266;2022-08-07T01:43:46;1.20;;;0.67;;
6640;SDS011;3356;49.360;8.266;2022-08-07T01:45:49;0.70;;;0.60;;
6640;SDS011;3356;49.360;8.266;2022-08-07T01:47:52;2.07;;;0.77;;
6640;SDS011;3356;49.360;8.266;2022-08-07T01:49:55;0.50;;;0.50;;
6640;SDS011;3356;49.360;8.266;2022-08-07T01:51:59;0.47;;;0.43;;
6640;SDS011;3356;49.360;8.266;2022-08-07T01:54:03;0.60;;;0.60;;
6640;SDS011;3356;49.360;8.266;2022-08-07T01:56:11;0.60;;;0.60;;
6640;SDS011;3356;49.360;8.266;2022-08-07T01:58:19;0.70;;;0.70;;
6640;SDS011;3356;49.360;8.266;2022-08-07T02:00:22;0.40;;;0.40;;
6640;SDS011;3356;49.360;8.266;2022-08-07T02:02:37;3.03;;;0.60;;
6640;SDS011;3356;49.360;8.266;2022-08-07T02:04:48;1.03;;;0.60;;
6640;SDS011;3356;49.360;8.266;2022-08-07T02:06:54;1.53;;;0.50;;
6640;SDS011;3356;49.360;8.266;2022-08-07T02:09:01;3.30;;;0.70;;
6640;SDS011;3356;49.360;8.266;2022-08-07T02:11:09;2.07;;;0.50;;
6640;SDS011;3356;49.360;8.266;2022-08-07T02:13:11;1.20;;;0.43;;
6640;SDS011;3356;49.360;8.266;2022-08-07T02:15:23;0.47;;;0.47;;
6640;SDS011;3356;49.360;8.266;2022-08-07T02:17:26;1.50;;;0.70;;
6640;SDS011;3356;49.360;8.266;2022-08-07T02:19:28;1.97;;;0.47;;
6640;SDS011;3356;49.360;8.266;2022-08-07T02:21:30;0.70;;;0.70;;
6640;SDS011;3356;49.360;8.266;2022-08-07T02:23:34;0.80;;;0.80;;
6640;SDS011;3356;49.360;8.266;2022-08-07T02:25:39;1.50;;;0.80;;
6640;SDS011;3356;49.360;8.266;2022-08-07T02:27:44;1.47;;;0.70;;
6640;SDS011;3356;49.360;8.266;2022-08-07T02:29:47;0.87;;;0.50;;
6640;SDS011;3356;49.360;8.266;2022-08-07T02:31:50;1.50;;;0.87;;
6640;SDS011;3356;49.360;8.266;2022-08-07T02:33:54;0.60;;;0.50;;
6640;SDS011;3356;49.360;8.266;2022-08-07T02:35:57;1.60;;;0.63;;
6640;SDS011;3356;49.360;8.266;2022-08-07T02:38:04;0.83;;;0.50;;
6640;SDS011;3356;49.360;8.266;2022-08-07T02:40:10;0.60;;;0.60;;
6640;SDS011;3356;49.360;8.266;2022-08-07T02:42:12;1.67;;;0.80;;
6640;SDS011;3356;49.360;8.266;2022-08-07T02:44:14;1.60;;;0.70;;
6640;SDS011;3356;49.360;8.266;2022-08-07T02:46:17;1.30;;;0.80;;
6640;SDS011;3356;49.360;8.266;2022-08-07T02:48:22;0.70;;;0.70;;
6640;SDS011;3356;49.360;8.266;2022-08-07T02:50:25;3.70;;;0.93;;
6640;SDS011;3356;49.360;8.266;2022-08-07T02:52:34;2.40;;;0.60;;
6640;SDS011;3356;49.360;8.266;2022-08-07T02:54:39;0.70;;;0.60;;
6640;SDS011;3356;49.360;8.266;2022-08-07T02:56:42;1.10;;;1.00;;
6640;SDS011;3356;49.360;8.266;2022-08-07T02:58:44;2.40;;;0.70;;
6640;SDS011;3356;49.360;8.266;2022-08-07T03:00:48;2.27;;;0.77;;
6640;SDS011;3356;49.360;8.266;2022-08-07T03:02:52;0.73;;;0.53;;
6640;SDS011;3356;49.360;8.266;2022-08-07T03:04:54;1.37;;;0.80;;
6640;SDS011;3356;49.360;8.266;2022-08-07T03:06:56;1.93;;;0.80;;
6640;SDS011;3356;49.360;8.266;2022-08-07T03:09:02;1.10;;;0.70;;
6640;SDS011;3356;49.360;8.266;2022-08-07T03:11:06;1.03;;;0.63;;
6640;SDS011;3356;49.360;8.266;2022-08-07T03:13:15;4.60;;;0.93;;
6640;SDS011;3356;49.360;8.266;2022-08-07T03:15:17;0.80;;;0.80;;
6640;SDS011;3356;49.360;8.266;2022-08-07T03:17:20;1.30;;;0.80;;
6640;SDS011;3356;49.360;8.266;2022-08-07T03:19:23;2.63;;;0.80;;
6640;SDS011;3356;49.360;8.266;2022-08-07T03:21:24;1.23;;;0.80;;
6640;SDS011;3356;49.360;8.266;2022-08-07T03:23:28;2.87;;;1.10;;
6640;SDS011;3356;49.360;8.266;2022-08-07T03:25:31;0.90;;;0.90;;
6640;SDS011;3356;49.360;8.266;2022-08-07T03:27:32;1.10;;;1.00;;
6640;SDS011;3356;49.360;8.266;2022-08-07T03:29:37;1.60;;;1.10;;
6640;SDS011;3356;49.360;8.266;2022-08-07T03:31:49;1.37;;;1.23;;
6640;SDS011;3356;49.360;8.266;2022-08-07T03:33:52;1.30;;;1.07;;
6640;SDS011;3356;49.360;8.266;2022-08-07T03:36:05;1.63;;;1.13;;
6640;SDS011;3356;49.360;8.266;2022-08-07T03:38:07;1.33;;;1.00;;
6640;SDS011;3356;49.360;8.266;2022-08-07T03:40:11;3.80;;;0.97;;
6640;SDS011;3356;49.360;8.266;2022-08-07T03:42:14;1.30;;;1.20;;
6640;SDS011;3356;49.360;8.266;2022-08-07T03:44:17;2.20;;;0.97;;
6640;SDS011;3356;49.360;8.266;2022-08-07T03:46:19;0.70;;;0.70;;
6640;SDS011;3356;49.360;8.266;2022-08-07T03:48:24;2.20;;;0.80;;
6640;SDS011;3356;49.360;8.266;2022-08-07T03:50:26;1.60;;;1.17;;
6640;SDS011;3356;49.360;8.266;2022-08-07T03:52:29;1.90;;;1.30;;
6640;SDS011;3356;49.360;8.266;2022-08-07T03:54:35;1.30;;;1.20;;
6640;SDS011;3356;49.360;8.266;2022-08-07T03:56:39;2.27;;;1.27;;
6640;SDS011;3356;49.360;8.266;2022-08-07T03:58:41;1.97;;;1.30;;
6640;SDS011;3356;49.360;8.266;2022-08-07T04:00:43;2.20;;;1.20;;
6640;SDS011;3356;49.360;8.266;2022-08-07T04:02:46;1.53;;;1.43;;
6640;SDS011;3356;49.360;8.266;2022-08-07T04:04:54;1.67;;;1.00;;
6640;SDS011;3356;49.360;8.266;2022-08-07T04:06:56;2.40;;;1.27;;
6640;SDS011;3356;49.360;8.266;2022-08-07T04:08:58;3.43;;;1.40;;
6640;SDS011;3356;49.360;8.266;2022-08-07T04:11:00;0.80;;;0.80;;
6640;SDS011;3356;49.360;8.266;2022-08-07T04:13:02;1.80;;;0.70;;
6640;SDS011;3356;49.360;8.266;2022-08-07T04:15:05;1.10;;;0.97;;
6640;SDS011;3356;49.360;8.266;2022-08-07T04:17:11;1.30;;;0.80;;
6640;SDS011;3356;49.360;8.266;2022-08-07T04:19:12;1.30;;;1.20;;
6640;SDS011;3356;49.360;8.266;2022-08-07T04:21:15;0.73;;;0.73;;
6640;SDS011;3356;49.360;8.266;2022-08-07T04:23:16;3.57;;;1.10;;
6640;SDS011;3356;49.360;8.266;2022-08-07T04:25:18;1.23;;;1.10;;
6640;SDS011;3356;49.360;8.266;2022-08-07T04:27:20;1.43;;;1.13;;
6640;SDS011;3356;49.360;8.266;2022-08-07T04:29:24;1.40;;;1.07;;
6640;SDS011;3356;49.360;8.266;2022-08-07T04:31:25;1.13;;;0.97;;
6640;SDS011;3356;49.360;8.266;2022-08-07T04:33:26;1.30;;;1.10;;
6640;SDS011;3356;49.360;8.266;2022-08-07T04:35:29;3.97;;;1.33;;
6640;SDS011;3356;49.360;8.266;2022-08-07T04:37:30;3.20;;;1.20;;
6640;SDS011;3356;49.360;8.266;2022-08-07T04:39:33;1.73;;;1.17;;
6640;SDS011;3356;49.360;8.266;2022-08-07T04:41:34;1.47;;;1.37;;
6640;SDS011;3356;49.360;8.266;2022-08-07T04:43:36;2.10;;;1.20;;
6640;SDS011;3356;49.360;8.266;2022-08-07T04:47:54;1.23;;;1.10;;
6640;SDS011;3356;49.360;8.266;2022-08-07T04:50:22;3.10;;;1.20;;
6640;SDS011;3356;49.360;8.266;2022-08-07T04:52:56;1.07;;;0.90;;
6640;SDS011;3356;49.360;8.266;2022-08-07T04:55:17;1.20;;;1.10;;
6640;SDS011;3356;49.360;8.266;2022-08-07T05:01:51;2.60;;;1.13;;
6640;SDS011;3356;49.360;8.266;2022-08-07T05:06:17;0.97;;;0.90;;
6640;SDS011;3356;49.360;8.266;2022-08-07T05:08:35;1.00;;;0.90;;
6640;SDS011;3356;49.360;8.266;2022-08-07T05:10:44;1.23;;;1.00;;
6640;SDS011;3356;49.360;8.266;2022-08-07T05:12:54;2.73;;;0.70;;
6640;SDS011;3356;49.360;8.266;2022-08-07T05:15:02;0.60;;;0.60;;
6640;SDS011;3356;49.360;8.266;2022-08-07T05:17:18;0.77;;;0.70;;
6640;SDS011;3356;49.360;8.266;2022-08-07T05:19:22;0.60;;;0.60;;
6640;SDS011;3356;49.360;8.266;2022-08-07T05:21:25;2.00;;;0.60;;
6640;SDS011;3356;49.360;8.266;2022-08-07T05:23:31;0.70;;;0.70;;
6640;SDS011;3356;49.360;8.266;2022-08-07T05:25:39;0.60;;;0.60;;
6640;SDS011;3356;49.360;8.266;2022-08-07T05:27:42;1.07;;;0.60;;
6640;SDS011;3356;49.360;8.266;2022-08-07T05:29:46;0.97;;;0.70;;
6640;SDS011;3356;49.360;8.266;2022-08-07T05:31:49;1.53;;;0.97;;
6640;SDS011;3356;49.360;8.266;2022-08-07T05:33:54;0.70;;;0.63;;
6640;SDS011;3356;49.360;8.266;2022-08-07T05:35:58;0.53;;;0.53;;
6640;SDS011;3356;49.360;8.266;2022-08-07T05:38:02;1.17;;;0.57;;
6640;SDS011;3356;49.360;8.266;2022-08-07T05:40:06;1.67;;;0.77;;
6640;SDS011;3356;49.360;8.266;2022-08-07T05:42:09;0.57;;;0.40;;
6640;SDS011;3356;49.360;8.266;2022-08-07T05:44:13;1.50;;;0.53;;
6640;SDS011;3356;49.360;8.266;2022-08-07T05:46:20;0.60;;;0.60;;
6640;SDS011;3356;49.360;8.266;2022-08-07T05:48:23;2.77;;;0.70;;
6640;SDS011;3356;49.360;8.266;2022-08-07T05:50:24;0.57;;;0.57;;
6640;SDS011;3356;49.360;8.266;2022-08-07T05:52:27;0.50;;;0.50;;
6640;SDS011;3356;49.360;8.266;2022-08-07T05:54:28;1.40;;;0.60;;
6640;SDS011;3356;49.360;8.266;2022-08-07T05:56:30;1.67;;;0.60;;
6640;SDS011;3356;49.360;8.266;2022-08-07T05:58:34;1.03;;;0.60;;
6640;SDS011;3356;49.360;8.266;2022-08-07T06:00:40;1.13;;;0.80;;
6640;SDS011;3356;49.360;8.266;2022-08-07T06:02:47;1.70;;;0.60;;
6640;SDS011;3356;49.360;8.266;2022-08-07T06:04:52;0.67;;;0.67;;
6640;SDS011;3356;49.360;8.266;2022-08-07T06:06:57;1.07;;;0.50;;
6640;SDS011;3356;49.360;8.266;2022-08-07T06:09:03;2.00;;;0.70;;
6640;SDS011;3356;49.360;8.266;2022-08-07T06:11:06;0.77;;;0.50;;
6640;SDS011;3356;49.360;8.266;2022-08-07T06:13:08;2.67;;;0.77;;
6640;SDS011;3356;49.360;8.266;2022-08-07T06:15:10;0.80;;;0.80;;
6640;SDS011;3356;49.360;8.266;2022-08-07T06:17:16;0.70;;;0.70;;
6640;SDS011;3356;49.360;8.266;2022-08-07T06:19:19;1.23;;;0.57;;
6640;SDS011;3356;49.360;8.266;2022-08-07T06:21:22;1.80;;;0.57;;
6640;SDS011;3356;49.360;8.266;2022-08-07T06:23:23;1.60;;;0.70;;
6640;SDS011;3356;49.360;8.266;2022-08-07T06:25:25;1.60;;;0.73;;
6640;SDS011;3356;49.360;8.266;2022-08-07T06:27:26;3.73;;;0.80;;
6640;SDS011;3356;49.360;8.266;2022-08-07T06:29:28;1.17;;;0.77;;
6640;SDS011;3356;49.360;8.266;2022-08-07T06:31:29;1.00;;;0.80;;
6640;SDS011;3356;49.360;8.266;2022-08-07T06:33:30;1.17;;;0.70;;
6640;SDS011;3356;49.360;8.266;2022-08-07T06:35:33;0.60;;;0.53;;
6640;SDS011;3356;49.360;8.266;2022-08-07T06:37:35;2.07;;;1.03;;
6640;SDS011;3356;49.360;8.266;2022-08-07T06:39:38;3.33;;;0.60;;
6640;SDS011;3356;49.360;8.266;2022-08-07T06:41:42;1.30;;;0.63;;
6640;SDS011;3356;49.360;8.266;2022-08-07T06:43:48;1.23;;;1.00;;
6640;SDS011;3356;49.360;8.266;2022-08-07T06:45:54;0.50;;;0.50;;
6640;SDS011;3356;49.360;8.266;2022-08-07T06:47:56;0.90;;;0.90;;
6640;SDS011;3356;49.360;8.266;2022-08-07T06:49:57;3.27;;;0.80;;
6640;SDS011;3356;49.360;8.266;2022-08-07T06:52:00;0.93;;;0.70;;
6640;SDS011;3356;49.360;8.266;2022-08-07T06:54:03;0.93;;;0.80;;
6640;SDS011;3356;49.360;8.266;2022-08-07T06:56:07;3.00;;;0.70;;
6640;SDS011;3356;49.360;8.266;2022-08-07T06:58:11;0.67;;;0.67;;
6640;SDS011;3356;49.360;8.266;2022-08-07T07:00:26;0.60;;;0.50;;
6640;SDS011;3356;49.360;8.266;2022-08-07T07:02:35;2.07;;;0.80;;
6640;SDS011;3356;49.360;8.266;2022-08-07T07:04:38;1.03;;;0.60;;
6640;SDS011;3356;49.360;8.266;2022-08-07T07:06:40;2.70;;;1.17;;
6640;SDS011;3356;49.360;8.266;2022-08-07T07:08:41;2.57;;;0.60;;
6640;SDS011;3356;49.360;8.266;2022-08-07T07:10:42;1.00;;;0.70;;
6640;SDS011;3356;49.360;8.266;2022-08-07T07:12:51;2.37;;;0.50;;
6640;SDS011;3356;49.360;8.266;2022-08-07T07:15:02;2.23;;;0.70;;
6640;SDS011;3356;49.360;8.266;2022-08-07T07:17:32;1.23;;;0.77;;
6640;SDS011;3356;49.360;8.266;2022-08-07T07:19:39;1.03;;;0.60;;
6640;SDS011;3356;49.360;8.266;2022-08-07T07:21:46;3.90;;;0.63;;
6640;SDS011;3356;49.360;8.266;2022-08-07T07:23:48;2.10;;;0.70;;
6640;SDS011;3356;49.360;8.266;2022-08-07T07:25:51;1.47;;;0.60;;
6640;SDS011;3356;49.360;8.266;2022-08-07T07:28:43;0.80;;;0.57;;
6640;SDS011;3356;49.360;8.266;2022-08-07T07:30:36;1.33;;;0.80;;
6640;SDS011;3356;49.360;8.266;2022-08-07T07:32:40;1.53;;;0.80;;
6640;SDS011;3356;49.360;8.266;2022-08-07T07:34:44;1.43;;;0.77;;
6640;SDS011;3356;49.360;8.266;2022-08-07T07:36:48;1.97;;;0.70;;
6640;SDS011;3356;49.360;8.266;2022-08-07T07:38:51;1.30;;;0.83;;
6640;SDS011;3356;49.360;8.266;2022-08-07T07:40:57;5.20;;;1.10;;
6640;SDS011;3356;49.360;8.266;2022-08-07T07:43:02;1.43;;;0.90;;
6640;SDS011;3356;49.360;8.266;2022-08-07T07:45:05;1.03;;;0.80;;
6640;SDS011;3356;49.360;8.266;2022-08-07T07:47:07;1.73;;;1.00;;
6640;SDS011;3356;49.360;8.266;2022-08-07T07:49:10;2.30;;;0.67;;
6640;SDS011;3356;49.360;8.266;2022-08-07T07:51:16;3.37;;;0.93;;
6640;SDS011;3356;49.360;8.266;2022-08-07T07:53:20;2.80;;;0.90;;
6640;SDS011;3356;49.360;8.266;2022-08-07T07:55:23;2.83;;;0.80;;
6640;SDS011;3356;49.360;8.266;2022-08-07T07:57:26;2.63;;;0.90;;
6640;SDS011;3356;49.360;8.266;2022-08-07T07:59:29;2.37;;;1.10;;
6640;SDS011;3356;49.360;8.266;2022-08-07T08:01:33;2.37;;;1.20;;
6640;SDS011;3356;49.360;8.266;2022-08-07T08:03:39;1.98;;;0.70;;
6640;SDS011;3356;49.360;8.266;2022-08-07T08:05:43;0.98;;;0.70;;
6640;SDS011;3356;49.360;8.266;2022-08-07T08:07:44;1.95;;;0.90;;
6640;SDS011;3356;49.360;8.266;2022-08-07T08:09:47;1.75;;;1.30;;
6640;SDS011;3356;49.360;8.266;2022-08-07T08:11:52;1.52;;;0.95;;
6640;SDS011;3356;49.360;8.266;2022-08-07T08:13:53;1.67;;;1.00;;
6640;SDS011;3356;49.360;8.266;2022-08-07T08:15:55;1.10;;;0.98;;
6640;SDS011;3356;49.360;8.266;2022-08-07T08:18:01;1.30;;;1.20;;
6640;SDS011;3356;49.360;8.266;2022-08-07T08:20:04;2.15;;;1.30;;
6640;SDS011;3356;49.360;8.266;2022-08-07T08:22:09;0.80;;;0.80;;
6640;SDS011;3356;49.360;8.266;2022-08-07T08:24:31;1.48;;;1.00;;
6640;SDS011;3356;49.360;8.266;2022-08-07T08:26:54;3.20;;;1.42;;
6640;SDS011;3356;49.360;8.266;2022-08-07T08:29:05;1.55;;;1.25;;
6640;SDS011;3356;49.360;8.266;2022-08-07T08:31:08;4.93;;;1.60;;
6640;SDS011;3356;49.360;8.266;2022-08-07T08:33:12;1.40;;;1.30;;
6640;SDS011;3356;49.360;8.266;2022-08-07T08:35:19;2.22;;;1.45;;
6640;SDS011;3356;49.360;8.266;2022-08-07T08:37:24;2.00;;;1.55;;
6640;SDS011;3356;49.360;8.266;2022-08-07T08:39:27;1.70;;;1.60;;
6640;SDS011;3356;49.360;8.266;2022-08-07T08:45:54;2.13;;;1.40;;
6640;SDS011;3356;49.360;8.266;2022-08-07T08:50:26;1.38;;;1.27;;
6640;SDS011;3356;49.360;8.266;2022-08-07T08:55:05;1.38;;;1.27;;
6640;SDS011;3356;49.360;8.266;2022-08-07T08:57:24;1.92;;;1.30;;
6640;SDS011;3356;49.360;8.266;2022-08-07T08:59:36;1.27;;;1.10;;
6640;SDS011;3356;49.360;8.266;2022-08-07T09:04:06;1.50;;;1.40;;
6640;SDS011;3356;49.360;8.266;2022-08-07T09:13:19;1.30;;;1.20;;
6640;SDS011;3356;49.360;8.266;2022-08-07T09:15:38;1.38;;;0.98;;
6640;SDS011;3356;49.360;8.266;2022-08-07T09:18:01;3.00;;;1.33;;
6640;SDS011;3356;49.360;8.266;2022-08-07T09:20:20;1.70;;;1.30;;
6640;SDS011;3356;49.360;8.266;2022-08-07T09:25:06;1.25;;;1.25;;
6640;SDS011;3356;49.360;8.266;2022-08-07T09:27:29;1.33;;;1.25;;
6640;SDS011;3356;49.360;8.266;2022-08-07T09:31:50;1.88;;;1.30;;
6640;SDS011;3356;49.360;8.266;2022-08-07T09:34:15;1.42;;;1.33;;
6640;SDS011;3356;49.360;8.266;2022-08-07T09:36:23;3.40;;;1.30;;
6640;SDS011;3356;49.360;8.266;2022-08-07T09:43:27;1.13;;;1.02;;
6640;SDS011;3356;49.360;8.266;2022-08-07T09:52:46;4.53;;;1.42;;
6640;SDS011;3356;49.360;8.266;2022-08-07T10:01:51;1.33;;;1.20;;
6640;SDS011;3356;49.360;8.266;2022-08-07T10:04:05;1.38;;;0.95;;
6640;SDS011;3356;49.360;8.266;2022-08-07T10:06:28;2.00;;;1.35;;
6640;SDS011;3356;49.360;8.266;2022-08-07T10:19:21;1.42;;;1.10;;
6640;SDS011;3356;49.360;8.266;2022-08-07T10:31:11;1.10;;;1.10;;
6640;SDS011;3356;49.360;8.266;2022-08-07T10:40:12;1.10;;;1.10;;
6640;SDS011;3356;49.360;8.266;2022-08-07T10:42:39;1.23;;;1.10;;
6640;SDS011;3356;49.360;8.266;2022-08-07T10:46:55;1.27;;;1.15;;
6640;SDS011;3356;49.360;8.266;2022-08-07T10:49:09;1.45;;;0.90;;
6640;SDS011;3356;49.360;8.266;2022-08-07T10:51:20;1.00;;;1.00;;
6640;SDS011;3356;49.360;8.266;2022-08-07T10:55:54;2.10;;;1.30;;
6640;SDS011;3356;49.360;8.266;2022-08-07T11:00:23;1.40;;;1.17;;
6640;SDS011;3356;49.360;8.266;2022-08-07T11:02:32;3.55;;;0.98;;
6640;SDS011;3356;49.360;8.266;2022-08-07T11:09:53;0.70;;;0.70;;
6640;SDS011;3356;49.360;8.266;2022-08-07T11:12:05;1.55;;;0.98;;
6640;SDS011;3356;49.360;8.266;2022-08-07T11:19:10;3.70;;;0.98;;
6640;SDS011;3356;49.360;8.266;2022-08-07T11:21:27;1.05;;;0.80;;
6640;SDS011;3356;49.360;8.266;2022-08-07T11:23:34;0.70;;;0.70;;
6640;SDS011;3356;49.360;8.266;2022-08-07T11:26:00;1.85;;;0.80;;
6640;SDS011;3356;49.360;8.266;2022-08-07T11:28:33;0.80;;;0.70;;
6640;SDS011;3356;49.360;8.266;2022-08-07T11:33:28;1.75;;;1.08;;
6640;SDS011;3356;49.360;8.266;2022-08-07T11:38:09;2.35;;;0.90;;
6640;SDS011;3356;49.360;8.266;2022-08-07T11:45:12;5.88;;;1.10;;
6640;SDS011;3356;49.360;8.266;2022-08-07T11:52:07;1.80;;;0.80;;
6640;SDS011;3356;49.360;8.266;2022-08-07T12:01:34;0.80;;;0.70;;
6640;SDS011;3356;49.360;8.266;2022-08-07T12:04:24;0.70;;;0.70;;
6640;SDS011;3356;49.360;8.266;2022-08-07T12:08:41;2.15;;;0.82;;
6640;SDS011;3356;49.360;8.266;2022-08-07T12:13:13;0.90;;;0.90;;
6640;SDS011;3356;49.360;8.266;2022-08-07T12:15:38;2.33;;;0.90;;
6640;SDS011;3356;49.360;8.266;2022-08-07T12:17:46;1.88;;;0.77;;
6640;SDS011;3356;49.360;8.266;2022-08-07T12:20:00;2.78;;;0.80;;
6640;SDS011;3356;49.360;8.266;2022-08-07T12:22:07;2.90;;;0.90;;
6640;SDS011;3356;49.360;8.266;2022-08-07T12:28:50;0.80;;;0.80;;
6640;SDS011;3356;49.360;8.266;2022-08-07T12:30:56;0.95;;;0.80;;
6640;SDS011;3356;49.360;8.266;2022-08-07T12:33:04;1.42;;;0.80;;
6640;SDS011;3356;49.360;8.266;2022-08-07T12:35:12;0.77;;;0.77;;
6640;SDS011;3356;49.360;8.266;2022-08-07T12:37:15;0.95;;;0.65;;
6640;SDS011;3356;49.360;8.266;2022-08-07T12:39:18;3.45;;;0.70;;
6640;SDS011;3356;49.360;8.266;2022-08-07T12:41:24;0.52;;;0.52;;
6640;SDS011;3356;49.360;8.266;2022-08-07T12:43:28;1.05;;;0.70;;
6640;SDS011;3356;49.360;8.266;2022-08-07T12:48:02;1.60;;;0.70;;
6640;SDS011;3356;49.360;8.266;2022-08-07T12:50:28;1.20;;;0.70;;
6640;SDS011;3356;49.360;8.266;2022-08-07T12:52:37;0.68;;;0.68;;
6640;SDS011;3356;49.360;8.266;2022-08-07T12:56:59;0.80;;;0.80;;
6640;SDS011;3356;49.360;8.266;2022-08-07T12:59:04;0.63;;;0.63;;
6640;SDS011;3356;49.360;8.266;2022-08-07T13:06:08;3.20;;;0.80;;
6640;SDS011;3356;49.360;8.266;2022-08-07T13:12:31;1.10;;;0.55;;
6640;SDS011;3356;49.360;8.266;2022-08-07T13:15:07;2.55;;;0.65;;
6640;SDS011;3356;49.360;8.266;2022-08-07T13:21:59;1.13;;;0.77;;
6640;SDS011;3356;49.360;8.266;2022-08-07T13:24:29;2.10;;;0.90;;
6640;SDS011;3356;49.360;8.266;2022-08-07T13:26:40;1.63;;;0.70;;
6640;SDS011;3356;49.360;8.266;2022-08-07T13:31:44;1.35;;;0.88;;
6640;SDS011;3356;49.360;8.266;2022-08-07T13:36:30;4.47;;;0.98;;
6640;SDS011;3356;49.360;8.266;2022-08-07T13:38:46;0.75;;;0.55;;
6640;SDS011;3356;49.360;8.266;2022-08-07T13:40:56;0.73;;;0.52;;
6640;SDS011;3356;49.360;8.266;2022-08-07T13:43:05;0.70;;;0.70;;
6640;SDS011;3356;49.360;8.266;2022-08-07T13:45:09;1.10;;;0.68;;
6640;SDS011;3356;49.360;8.266;2022-08-07T13:47:10;0.60;;;0.60;;
6640;SDS011;3356;49.360;8.266;2022-08-07T13:49:15;1.38;;;0.80;;
6640;SDS011;3356;49.360;8.266;2022-08-07T13:51:18;2.00;;;0.63;;
6640;SDS011;3356;49.360;8.266;2022-08-07T13:53:21;0.60;;;0.60;;
6640;SDS011;3356;49.360;8.266;2022-08-07T13:55:27;0.68;;;0.68;;
6640;SDS011;3356;49.360;8.266;2022-08-07T13:57:31;1.42;;;0.50;;
6640;SDS011;3356;49.360;8.266;2022-08-07T13:59:33;1.63;;;0.70;;
6640;SDS011;3356;49.360;8.266;2022-08-07T14:01:43;0.43;;;0.43;;
6640;SDS011;3356;49.360;8.266;2022-08-07T14:03:45;1.75;;;0.73;;
6640;SDS011;3356;49.360;8.266;2022-08-07T14:05:49;2.00;;;0.85;;
6640;SDS011;3356;49.360;8.266;2022-08-07T14:07:54;1.57;;;0.70;;
6640;SDS011;3356;49.360;8.266;2022-08-07T14:10:00;1.13;;;0.50;;
6640;SDS011;3356;49.360;8.266;2022-08-07T14:12:02;0.60;;;0.60;;
6640;SDS011;3356;49.360;8.266;2022-08-07T14:14:07;0.70;;;0.70;;
6640;SDS011;3356;49.360;8.266;2022-08-07T14:16:12;2.33;;;0.60;;
6640;SDS011;3356;49.360;8.266;2022-08-07T14:18:17;0.50;;;0.50;;
6640;SDS011;3356;49.360;8.266;2022-08-07T14:20:21;0.60;;;0.60;;
6640;SDS011;3356;49.360;8.266;2022-08-07T14:22:27;1.33;;;0.60;;
6640;SDS011;3356;49.360;8.266;2022-08-07T14:26:48;0.90;;;0.60;;
6640;SDS011;3356;49.360;8.266;2022-08-07T14:28:51;1.87;;;0.70;;
6640;SDS011;3356;49.360;8.266;2022-08-07T14:30:53;2.63;;;0.80;;
6640;SDS011;3356;49.360;8.266;2022-08-07T14:32:57;0.47;;;0.47;;
6640;SDS011;3356;49.360;8.266;2022-08-07T14:35:01;2.93;;;0.70;;
6640;SDS011;3356;49.360;8.266;2022-08-07T14:37:03;0.60;;;0.60;;
6640;SDS011;3356;49.360;8.266;2022-08-07T14:39:10;0.63;;;0.63;;
6640;SDS011;3356;49.360;8.266;2022-08-07T14:41:11;1.03;;;0.70;;
6640;SDS011;3356;49.360;8.266;2022-08-07T14:43:16;1.17;;;0.57;;
6640;SDS011;3356;49.360;8.266;2022-08-07T14:45:24;0.87;;;0.50;;
6640;SDS011;3356;49.360;8.266;2022-08-07T14:47:29;1.70;;;0.40;;
6640;SDS011;3356;49.360;8.266;2022-08-07T14:49:32;0.83;;;0.63;;
6640;SDS011;3356;49.360;8.266;2022-08-07T14:51:35;2.17;;;0.63;;
6640;SDS011;3356;49.360;8.266;2022-08-07T14:53:41;1.80;;;0.60;;
6640;SDS011;3356;49.360;8.266;2022-08-07T14:55:45;0.53;;;0.53;;
6640;SDS011;3356;49.360;8.266;2022-08-07T14:57:48;1.00;;;0.50;;
6640;SDS011;3356;49.360;8.266;2022-08-07T14:59:51;2.13;;;0.60;;
6640;SDS011;3356;49.360;8.266;2022-08-07T15:01:55;0.67;;;0.67;;
6640;SDS011;3356;49.360;8.266;2022-08-07T15:04:00;0.70;;;0.70;;
6640;SDS011;3356;49.360;8.266;2022-08-07T15:06:03;0.67;;;0.50;;
6640;SDS011;3356;49.360;8.266;2022-08-07T15:08:07;1.00;;;0.60;;
6640;SDS011;3356;49.360;8.266;2022-08-07T15:10:15;1.57;;;0.77;;
6640;SDS011;3356;49.360;8.266;2022-08-07T15:12:18;0.50;;;0.50;;
6640;SDS011;3356;49.360;8.266;2022-08-07T15:14:23;0.97;;;0.80;;
6640;SDS011;3356;49.360;8.266;2022-08-07T15:18:49;0.67;;;0.60;;
6640;SDS011;3356;49.360;8.266;2022-08-07T15:20:57;1.93;;;0.80;;
6640;SDS011;3356;49.360;8.266;2022-08-07T15:23:00;1.60;;;0.70;;
6640;SDS011;3356;49.360;8.266;2022-08-07T15:25:06;1.23;;;0.80;;
6640;SDS011;3356;49.360;8.266;2022-08-07T15:27:16;0.67;;;0.67;;
6640;SDS011;3356;49.360;8.266;2022-08-07T15:29:21;2.07;;;0.57;;
6640;SDS011;3356;49.360;8.266;2022-08-07T15:31:30;1.90;;;0.70;;
6640;SDS011;3356;49.360;8.266;2022-08-07T15:33:37;0.60;;;0.60;;
6640;SDS011;3356;49.360;8.266;2022-08-07T15:35:40;0.60;;;0.60;;
6640;SDS011;3356;49.360;8.266;2022-08-07T15:37:43;3.07;;;0.80;;